Morganville, Kansas
Current Conditions -  °F | °C
As of 6:55 PM on Tuesday 25 Nov 2014 (Local Time) from KCNK Reporting Station
Overcast Overcast  
Wind Chill: 39°   Ceiling: 10000
Heat Index: 45°   Visibility: 10mi
Dew Point: 22°   Wind: 14mph
Humidity: 40%   Direction: 180°S
Pressure: 29.93"   Gusts: NA
Location:  39.47°N, 97.2°W
Report Text: KCNK 260055Z AUTO 18012KT 10SM OVC100 07/M06 A2993 RMK AO2 SLP144 T00721056
Loading
Personal Weather Stations






























Interactive Weather Map New forecast layout! Learn more

10-Day Weather Forecast

Advertisements
Track Severe Weather on mobile